createdAt,value
2023-02-17T00:01:31.698Z,79.71
2023-02-17T00:04:00.392Z,79.89
2023-02-17T00:06:30.055Z,79.67
2023-02-17T00:08:58.184Z,79.62
2023-02-17T00:11:25.392Z,79.50
2023-02-17T00:13:55.247Z,79.80
2023-02-17T00:16:26.355Z,79.32
2023-02-17T00:19:00.307Z,79.62
2023-02-17T00:21:31.212Z,79.52
2023-02-17T00:23:59.173Z,78.92
2023-02-17T00:26:26.167Z,79.18
2023-02-17T00:28:53.277Z,79.19
2023-02-17T00:31:23.575Z,78.93
2023-02-17T00:33:53.560Z,78.99
2023-02-17T00:36:20.750Z,79.45
2023-02-17T00:38:49.065Z,79.61
2023-02-17T00:41:17.926Z,79.38
2023-02-17T00:43:45.226Z,79.52
2023-02-17T00:46:12.428Z,79.50
2023-02-17T00:48:39.786Z,79.34
2023-02-17T00:51:07.079Z,79.60
2023-02-17T00:53:34.705Z,79.49
2023-02-17T00:56:01.979Z,79.72
2023-02-17T00:58:29.301Z,79.61
2023-02-17T01:00:57.952Z,79.81
2023-02-17T01:03:25.827Z,79.76
2023-02-17T01:05:54.591Z,79.89
2023-02-17T01:08:23.537Z,79.41
2023-02-17T01:10:51.968Z,79.43
2023-02-17T01:13:19.951Z,79.82
2023-02-17T01:15:53.328Z,80.08
2023-02-17T01:18:24.035Z,79.72
2023-02-17T01:20:52.096Z,79.72
2023-02-17T01:23:19.666Z,79.28
2023-02-17T01:25:49.059Z,79.86
2023-02-17T01:28:21.050Z,79.98
2023-02-17T01:30:49.145Z,80.32
2023-02-17T01:33:16.219Z,80.27
2023-02-17T01:35:43.298Z,80.62
2023-02-17T01:38:10.468Z,80.17
2023-02-17T01:40:37.728Z,80.15
2023-02-17T01:43:06.818Z,80.35
2023-02-17T01:45:41.595Z,80.29
2023-02-17T01:48:17.038Z,80.71
2023-02-17T01:51:09.497Z,80.39
2023-02-17T01:54:03.109Z,79.88
2023-02-17T01:56:33.856Z,79.66
2023-02-17T01:59:07.930Z,80.02
2023-02-17T02:01:35.653Z,80.06
2023-02-17T02:04:06.274Z,80.00
2023-02-17T02:06:36.338Z,80.02
2023-02-17T02:09:25.809Z,80.58
2023-02-17T02:11:53.208Z,80.19
2023-02-17T02:14:22.481Z,80.43
2023-02-17T02:17:13.942Z,80.49
2023-02-17T02:20:24.356Z,80.56
2023-02-17T02:23:08.994Z,80.54
2023-02-17T02:25:35.983Z,80.16
2023-02-17T02:28:21.613Z,80.48
2023-02-17T02:31:18.843Z,80.61
2023-02-17T02:34:10.288Z,80.71
2023-02-17T02:37:11.542Z,80.59
2023-02-17T02:39:44.110Z,80.63
2023-02-17T02:42:16.992Z,81.12
2023-02-17T02:44:44.026Z,81.24
2023-02-17T02:47:35.869Z,81.53
2023-02-17T02:50:03.522Z,81.55
2023-02-17T02:53:10.960Z,81.53
2023-02-17T02:55:56.630Z,81.50
2023-02-17T02:58:32.144Z,81.45
2023-02-17T03:01:19.883Z,81.60
2023-02-17T03:04:09.550Z,81.90
2023-02-17T03:07:21.378Z,81.88
2023-02-17T03:09:59.030Z,82.02
2023-02-17T03:12:27.614Z,82.01
2023-02-17T03:15:06.277Z,82.30
2023-02-17T03:17:34.036Z,82.40
2023-02-17T03:20:04.383Z,82.51
2023-02-17T03:22:41.743Z,82.73
2023-02-17T03:25:09.694Z,83.27
2023-02-17T03:27:36.696Z,83.34
2023-02-17T03:30:07.956Z,83.98
2023-02-17T03:32:35.741Z,84.07
2023-02-17T03:35:03.826Z,84.22
2023-02-17T03:37:31.130Z,84.21
2023-02-17T03:39:58.206Z,84.17
2023-02-17T03:42:25.216Z,84.52
2023-02-17T03:44:52.225Z,84.48
2023-02-17T03:47:19.280Z,84.55
2023-02-17T03:49:46.301Z,84.82
2023-02-17T03:52:13.385Z,84.86
2023-02-17T03:54:40.398Z,85.13
2023-02-17T03:57:07.404Z,85.49
2023-02-17T03:59:34.610Z,85.88
2023-02-17T04:02:01.714Z,85.94
2023-02-17T04:04:28.744Z,86.06
2023-02-17T04:06:55.926Z,85.98
2023-02-17T04:09:22.989Z,85.97
2023-02-17T04:11:50.009Z,86.09
2023-02-17T04:14:17.031Z,86.15
2023-02-17T04:16:44.037Z,86.79
2023-02-17T04:19:11.102Z,87.01
2023-02-17T04:21:38.141Z,86.68
2023-02-17T04:24:05.445Z,86.88
2023-02-17T04:26:32.472Z,86.89
2023-02-17T04:28:59.485Z,87.18
2023-02-17T04:31:28.196Z,87.51
2023-02-17T04:33:55.365Z,87.61
2023-02-17T04:36:22.595Z,87.69
2023-02-17T04:38:49.640Z,87.37
2023-02-17T04:41:16.713Z,88.05
2023-02-17T04:43:43.756Z,88.28
2023-02-17T04:46:11.980Z,88.61
2023-02-17T04:48:39.601Z,88.87
2023-02-17T04:51:06.810Z,89.19
2023-02-17T04:53:33.826Z,89.28
2023-02-17T04:56:00.918Z,89.52
2023-02-17T04:58:27.955Z,89.74
2023-02-17T05:00:55.011Z,90.41
2023-02-17T05:03:22.046Z,90.47
2023-02-17T05:05:50.545Z,90.48
2023-02-17T05:08:17.638Z,91.02
2023-02-17T05:10:44.630Z,90.84
2023-02-17T05:13:11.683Z,90.80
2023-02-17T05:15:38.786Z,91.08
2023-02-17T05:18:05.965Z,91.23
2023-02-17T05:20:33.048Z,91.27
2023-02-17T05:23:00.445Z,91.20
2023-02-17T05:25:27.472Z,91.87
2023-02-17T05:27:54.546Z,91.81
2023-02-17T05:30:21.838Z,91.72
2023-02-17T05:32:49.019Z,92.25
2023-02-17T05:35:16.237Z,92.66
2023-02-17T05:37:43.238Z,92.37
2023-02-17T05:40:11.432Z,92.41
2023-02-17T05:42:38.447Z,92.63
2023-02-17T05:45:05.910Z,91.97
2023-02-17T05:47:32.905Z,92.45
2023-02-17T05:49:59.918Z,92.71
2023-02-17T05:52:27.034Z,92.61
2023-02-17T05:54:54.198Z,92.33
2023-02-17T05:57:21.298Z,91.86
2023-02-17T05:59:48.418Z,92.08
2023-02-17T06:02:15.458Z,92.04
2023-02-17T06:04:42.551Z,92.36
2023-02-17T06:07:09.673Z,92.44
2023-02-17T06:09:36.675Z,92.35
2023-02-17T06:12:04.281Z,92.41
2023-02-17T06:14:31.496Z,91.66
2023-02-17T06:17:01.093Z,91.33
2023-02-17T06:19:28.754Z,91.04
2023-02-17T06:21:57.136Z,91.16
2023-02-17T06:24:24.937Z,91.37
2023-02-17T06:26:51.959Z,91.42
2023-02-17T06:29:18.985Z,90.83
2023-02-17T06:31:46.093Z,91.01
2023-02-17T06:34:13.321Z,90.85
2023-02-17T06:36:40.498Z,90.26
2023-02-17T06:39:07.525Z,90.32
2023-02-17T06:41:34.521Z,90.30
2023-02-17T06:44:01.668Z,90.29
2023-02-17T06:46:28.767Z,89.81
2023-02-17T06:48:55.842Z,89.86
2023-02-17T06:51:22.981Z,89.43
2023-02-17T06:53:50.025Z,89.41
2023-02-17T06:56:17.040Z,89.13
2023-02-17T06:58:44.140Z,88.46
2023-02-17T07:01:27.461Z,88.69
2023-02-17T07:03:56.264Z,88.43
2023-02-17T07:06:25.026Z,88.12
2023-02-17T07:08:52.519Z,87.48
2023-02-17T07:11:20.144Z,87.23
2023-02-17T07:13:47.600Z,86.69
2023-02-17T07:16:15.849Z,85.81
2023-02-17T07:18:43.310Z,85.89
2023-02-17T07:21:10.567Z,85.42
2023-02-17T07:23:39.556Z,84.22
2023-02-17T07:26:10.560Z,82.87
2023-02-17T07:28:39.624Z,81.65
2023-02-17T07:31:12.902Z,81.33
2023-02-17T07:33:41.299Z,81.26
2023-02-17T07:36:14.344Z,81.12
2023-02-17T07:38:43.582Z,81.50
2023-02-17T07:41:19.905Z,81.48
2023-02-17T07:43:48.270Z,81.40
2023-02-17T07:46:15.921Z,81.47
2023-02-17T07:48:42.975Z,81.22
2023-02-17T07:51:18.510Z,81.14
2023-02-17T07:53:45.952Z,80.87
2023-02-17T07:56:16.465Z,80.69
2023-02-17T07:58:45.413Z,80.14
2023-02-17T08:01:16.329Z,79.82
2023-02-17T08:03:44.205Z,80.06
2023-02-17T08:06:20.673Z,79.48
2023-02-17T08:09:08.204Z,79.32
2023-02-17T08:11:54.314Z,78.84
2023-02-17T08:14:23.373Z,78.49
2023-02-17T08:16:50.736Z,79.00
2023-02-17T08:19:18.136Z,78.77
2023-02-17T08:21:45.673Z,78.57
2023-02-17T08:24:13.089Z,78.39
2023-02-17T08:26:40.412Z,78.22
2023-02-17T08:29:07.969Z,78.67
2023-02-17T08:31:37.185Z,78.42
2023-02-17T08:34:08.285Z,78.67
2023-02-17T08:36:37.606Z,77.84
2023-02-17T08:39:14.311Z,78.08
2023-02-17T08:41:42.460Z,78.30
2023-02-17T08:44:21.055Z,78.07
2023-02-17T08:46:50.471Z,77.63
2023-02-17T08:49:21.842Z,77.68
2023-02-17T08:51:50.272Z,77.17
2023-02-17T08:54:17.956Z,76.89
2023-02-17T08:56:45.715Z,76.85
2023-02-17T08:59:13.318Z,76.59
2023-02-17T09:01:41.616Z,76.55
2023-02-17T09:04:11.971Z,76.70
2023-02-17T09:06:52.642Z,76.86
2023-02-17T09:09:23.854Z,77.23
2023-02-17T09:11:50.941Z,77.19
2023-02-17T09:14:17.982Z,77.41
2023-02-17T09:16:45.070Z,78.05
2023-02-17T09:19:12.122Z,78.64
2023-02-17T09:21:39.115Z,78.31
2023-02-17T09:24:06.663Z,79.10
2023-02-17T09:26:35.236Z,79.44
2023-02-17T09:29:04.261Z,79.94
2023-02-17T09:31:32.106Z,79.90
2023-02-17T09:33:59.472Z,79.69
2023-02-17T09:36:33.492Z,79.57
2023-02-17T09:39:01.850Z,80.20
2023-02-17T09:41:53.335Z,80.35
2023-02-17T09:44:24.470Z,80.51
2023-02-17T09:47:21.349Z,80.69
2023-02-17T09:50:01.695Z,81.37
2023-02-17T09:52:54.548Z,81.40
2023-02-17T09:55:32.762Z,81.48
2023-02-17T09:58:18.363Z,81.74
2023-02-17T10:00:54.623Z,81.65
2023-02-17T10:03:41.486Z,81.61
2023-02-17T10:06:34.187Z,81.66
2023-02-17T10:09:28.845Z,82.10
2023-02-17T10:12:15.237Z,82.20
2023-02-17T10:15:04.562Z,82.52
2023-02-17T10:18:08.304Z,82.81
2023-02-17T10:21:03.578Z,83.23
2023-02-17T10:23:31.298Z,83.69
2023-02-17T10:26:22.147Z,84.05
2023-02-17T10:29:16.565Z,84.59
2023-02-17T10:31:47.683Z,84.34
2023-02-17T10:34:46.620Z,84.65
2023-02-17T10:37:52.762Z,84.57
2023-02-17T10:40:21.617Z,85.27
2023-02-17T10:42:53.458Z,85.59
2023-02-17T10:45:41.003Z,86.28
2023-02-17T10:48:32.787Z,85.96
2023-02-17T10:51:02.003Z,85.95
2023-02-17T10:53:40.543Z,86.11
2023-02-17T10:56:10.464Z,86.43
2023-02-17T10:59:17.532Z,86.40
2023-02-17T11:01:44.673Z,85.92
2023-02-17T11:04:14.255Z,85.71
2023-02-17T11:06:50.060Z,85.60
2023-02-17T11:09:32.056Z,85.82
2023-02-17T11:12:02.657Z,85.70
2023-02-17T11:14:36.933Z,85.75
2023-02-17T11:17:26.149Z,86.01
2023-02-17T11:20:04.886Z,86.39
2023-02-17T11:22:46.252Z,87.03
2023-02-17T11:25:34.455Z,87.72
2023-02-17T11:28:05.672Z,87.98
2023-02-17T11:30:35.956Z,88.37
2023-02-17T11:33:14.607Z,88.75
2023-02-17T11:35:46.232Z,88.82
2023-02-17T11:38:33.620Z,88.96
2023-02-17T11:41:07.720Z,89.15
2023-02-17T11:43:36.903Z,89.26
2023-02-17T11:46:50.218Z,89.53
2023-02-17T11:49:46.961Z,89.49
2023-02-17T11:53:06.080Z,90.33
2023-02-17T11:56:25.291Z,90.30
2023-02-17T11:59:18.388Z,90.22
2023-02-17T12:01:54.008Z,90.44
2023-02-17T12:04:31.521Z,90.88
2023-02-17T12:07:39.165Z,90.41
2023-02-17T12:10:37.580Z,90.81
2023-02-17T12:13:36.514Z,90.86
2023-02-17T12:16:15.064Z,90.72
2023-02-17T12:19:24.797Z,90.92
2023-02-17T12:22:22.186Z,90.84
2023-02-17T12:25:11.538Z,91.00
2023-02-17T12:28:03.367Z,91.55
2023-02-17T12:31:02.742Z,91.75
2023-02-17T12:33:58.355Z,92.06
2023-02-17T12:36:38.149Z,92.09
2023-02-17T12:39:24.468Z,92.55
2023-02-17T12:42:21.229Z,92.92
2023-02-17T12:44:54.269Z,93.08
2023-02-17T12:47:56.335Z,93.54
2023-02-17T12:50:35.486Z,93.33
2023-02-17T12:53:08.134Z,93.85
2023-02-17T12:55:57.499Z,94.17
2023-02-17T12:58:29.870Z,94.50
2023-02-17T13:01:14.877Z,95.23
2023-02-17T13:03:42.084Z,95.29
2023-02-17T13:06:29.447Z,95.39
2023-02-17T13:09:31.066Z,95.57
2023-02-17T13:12:22.674Z,95.40
2023-02-17T13:14:56.657Z,95.99
2023-02-17T13:17:32.629Z,96.06
2023-02-17T13:20:11.334Z,95.92
2023-02-17T13:22:42.452Z,96.00
2023-02-17T13:25:29.928Z,95.38
2023-02-17T13:28:01.721Z,95.51
2023-02-17T13:30:42.950Z,96.14
2023-02-17T13:33:21.956Z,96.60
2023-02-17T13:35:49.447Z,97.28
2023-02-17T13:38:32.385Z,97.91
2023-02-17T13:41:06.783Z,98.51
2023-02-17T13:43:42.336Z,99.02
2023-02-17T13:46:25.190Z,98.88
2023-02-17T13:49:02.950Z,99.03
2023-02-17T13:51:32.745Z,99.26
2023-02-17T13:54:12.509Z,99.90
2023-02-17T13:56:40.191Z,100.00
2023-02-17T13:59:18.152Z,99.81
2023-02-17T14:01:47.036Z,100.00
2023-02-17T14:04:31.327Z,100.00
2023-02-17T14:07:05.077Z,100.00
2023-02-17T14:09:34.869Z,100.00
2023-02-17T14:12:06.291Z,100.00
2023-02-17T14:14:37.330Z,100.00
2023-02-17T14:17:06.825Z,100.00
2023-02-17T14:19:54.135Z,100.00
2023-02-17T14:22:39.243Z,100.00
2023-02-17T14:25:25.758Z,100.00
2023-02-17T14:27:52.991Z,100.00
2023-02-17T14:30:40.004Z,100.00
2023-02-17T14:33:27.288Z,100.00
2023-02-17T14:36:09.182Z,100.00
2023-02-17T14:38:42.801Z,100.00
2023-02-17T14:41:10.406Z,100.00
2023-02-17T14:43:37.909Z,100.00
2023-02-17T14:46:05.707Z,100.00
2023-02-17T14:48:32.974Z,100.00
2023-02-17T14:51:00.079Z,100.00
2023-02-17T14:53:28.211Z,100.00
2023-02-17T14:56:06.951Z,100.00
2023-02-17T14:58:34.605Z,100.00
2023-02-17T15:01:02.032Z,100.00
2023-02-17T15:03:29.254Z,100.00
2023-02-17T15:05:56.505Z,100.00
2023-02-17T15:08:34.862Z,100.00
2023-02-17T15:11:02.975Z,100.00
2023-02-17T15:13:31.777Z,100.00
2023-02-17T15:15:59.258Z,100.00
2023-02-17T15:18:28.043Z,100.00
2023-02-17T15:20:55.580Z,100.00
2023-02-17T15:23:25.928Z,100.00
2023-02-17T15:25:55.490Z,100.00
2023-02-17T15:28:22.817Z,100.00
2023-02-17T15:30:54.597Z,100.00
2023-02-17T15:33:24.541Z,100.00
2023-02-17T15:35:54.420Z,100.00
2023-02-17T15:38:22.568Z,100.00
2023-02-17T15:40:49.933Z,100.00
2023-02-17T15:43:22.623Z,100.00
2023-02-17T15:45:50.027Z,100.00
2023-02-17T15:48:24.563Z,100.00
2023-02-17T15:50:52.888Z,100.00
2023-02-17T15:53:20.359Z,100.00
2023-02-17T15:55:48.528Z,100.00
2023-02-17T15:58:22.271Z,100.00
2023-02-17T16:00:51.198Z,100.00
2023-02-17T16:03:18.698Z,100.00
2023-02-17T16:05:46.028Z,100.00
2023-02-17T16:08:13.046Z,100.00
2023-02-17T16:10:42.546Z,100.00
2023-02-17T16:13:15.295Z,100.00
2023-02-17T16:15:43.001Z,100.00
2023-02-17T16:18:28.179Z,100.00
2023-02-17T16:20:55.219Z,100.00
2023-02-17T16:23:22.348Z,100.00
2023-02-17T16:25:50.336Z,100.00
2023-02-17T16:28:22.048Z,100.00
2023-02-17T16:30:50.716Z,100.00
2023-02-17T16:33:18.176Z,100.00
2023-02-17T16:35:45.729Z,100.00
2023-02-17T16:38:23.167Z,100.00
2023-02-17T16:40:52.866Z,100.00
2023-02-17T16:43:23.933Z,100.00
2023-02-17T16:46:02.544Z,100.00
2023-02-17T16:48:35.547Z,100.00
2023-02-17T16:51:02.654Z,100.00
2023-02-17T16:53:29.711Z,100.00
2023-02-17T16:55:57.162Z,100.00
2023-02-17T16:58:26.718Z,100.00
2023-02-17T17:00:55.886Z,100.00
2023-02-17T17:03:23.417Z,100.00
2023-02-17T17:05:52.606Z,100.00
2023-02-17T17:08:21.796Z,100.00
2023-02-17T17:10:49.758Z,100.00
2023-02-17T17:13:17.079Z,100.00
2023-02-17T17:15:45.793Z,100.00
2023-02-17T17:18:21.683Z,100.00
2023-02-17T17:20:49.139Z,100.00
2023-02-17T17:23:16.789Z,100.00
2023-02-17T17:25:47.024Z,100.00
2023-02-17T17:28:18.679Z,100.00
2023-02-17T17:30:47.569Z,100.00
2023-02-17T17:33:15.008Z,100.00
2023-02-17T17:35:42.171Z,100.00
2023-02-17T17:38:15.661Z,100.00
2023-02-17T17:40:48.912Z,100.00
2023-02-17T17:43:21.707Z,100.00
2023-02-17T17:45:51.073Z,100.00
2023-02-17T17:48:19.037Z,100.00
2023-02-17T17:50:46.398Z,100.00
2023-02-17T17:53:13.399Z,100.00
2023-02-17T17:55:40.450Z,100.00
2023-02-17T17:58:07.751Z,100.00
2023-02-17T18:00:34.837Z,100.00
2023-02-17T18:03:01.886Z,100.00
2023-02-17T18:05:29.023Z,100.00
2023-02-17T18:07:56.656Z,100.00
2023-02-17T18:10:23.885Z,100.00
2023-02-17T18:12:51.072Z,100.00
2023-02-17T18:15:18.765Z,100.00
2023-02-17T18:17:46.797Z,100.00
2023-02-17T18:20:14.382Z,100.00
2023-02-17T18:22:41.933Z,100.00
2023-02-17T18:25:10.143Z,100.00
2023-02-17T18:27:46.153Z,100.00
2023-02-17T18:30:18.715Z,100.00
2023-02-17T18:32:46.765Z,100.00
2023-02-17T18:35:14.922Z,100.00
2023-02-17T18:37:42.345Z,100.00
2023-02-17T18:40:14.559Z,100.00
2023-02-17T18:42:45.545Z,100.00
2023-02-17T18:45:13.470Z,100.00
2023-02-17T18:47:40.853Z,100.00
2023-02-17T18:50:09.596Z,100.00
2023-02-17T18:52:41.290Z,100.00
2023-02-17T18:55:09.734Z,100.00
2023-02-17T18:57:37.181Z,100.00
2023-02-17T19:00:08.358Z,100.00
2023-02-17T19:02:40.203Z,100.00
2023-02-17T19:05:09.477Z,100.00
2023-02-17T19:07:37.104Z,100.00
2023-02-17T19:10:05.888Z,100.00
2023-02-17T19:12:34.289Z,100.00
2023-02-17T19:15:01.464Z,100.00
2023-02-17T19:17:28.498Z,100.00
2023-02-17T19:19:55.703Z,100.00
2023-02-17T19:22:22.820Z,100.00
2023-02-17T19:24:54.953Z,100.00
2023-02-17T19:27:22.005Z,100.00
2023-02-17T19:29:49.054Z,100.00
2023-02-17T19:32:16.152Z,100.00
2023-02-17T19:34:43.213Z,100.00
2023-02-17T19:37:10.290Z,100.00
2023-02-17T19:39:37.321Z,100.00
2023-02-17T19:42:05.002Z,100.00
2023-02-17T19:44:32.473Z,100.00
2023-02-17T19:47:00.921Z,100.00
2023-02-17T19:49:28.094Z,100.00
2023-02-17T19:51:55.955Z,100.00
2023-02-17T19:54:24.523Z,100.00
2023-02-17T19:56:52.078Z,100.00
2023-02-17T19:59:19.604Z,100.00
2023-02-17T20:01:46.814Z,100.00
2023-02-17T20:04:14.370Z,100.00
2023-02-17T20:06:48.000Z,100.00
2023-02-17T20:09:21.252Z,100.00
2023-02-17T20:11:52.298Z,100.00
2023-02-17T20:14:20.642Z,100.00
2023-02-17T20:16:48.645Z,100.00
2023-02-17T20:19:16.376Z,100.00
2023-02-17T20:21:44.953Z,100.00
2023-02-17T20:24:15.578Z,100.00
2023-02-17T20:26:46.455Z,100.00
2023-02-17T20:29:14.779Z,100.00
2023-02-17T20:31:43.269Z,100.00
2023-02-17T20:34:35.485Z,100.00
2023-02-17T20:37:02.686Z,100.00
2023-02-17T20:39:29.743Z,100.00
2023-02-17T20:41:57.503Z,100.00
2023-02-17T20:44:27.759Z,100.00
2023-02-17T20:46:56.235Z,100.00
2023-02-17T20:49:23.907Z,100.00
2023-02-17T20:51:51.225Z,100.00
2023-02-17T20:54:18.263Z,100.00
2023-02-17T20:56:47.405Z,100.00
2023-02-17T20:59:15.438Z,100.00
2023-02-17T21:01:43.207Z,100.00
2023-02-17T21:04:11.021Z,100.00
2023-02-17T21:06:41.335Z,100.00
2023-02-17T21:09:15.861Z,100.00
2023-02-17T21:11:43.123Z,100.00
2023-02-17T21:14:11.036Z,100.00
2023-02-17T21:16:38.432Z,100.00
2023-02-17T21:19:06.100Z,100.00
2023-02-17T21:21:33.359Z,100.00
2023-02-17T21:24:00.644Z,100.00
2023-02-17T21:26:27.980Z,100.00
2023-02-17T21:28:55.302Z,100.00
2023-02-17T21:31:22.650Z,100.00
2023-02-17T21:33:49.734Z,100.00
2023-02-17T21:36:18.096Z,100.00
2023-02-17T21:38:46.354Z,100.00
2023-02-17T21:41:22.126Z,100.00
2023-02-17T21:44:08.484Z,100.00
2023-02-17T21:46:37.365Z,100.00
2023-02-17T21:49:04.873Z,100.00
2023-02-17T21:51:32.493Z,100.00
2023-02-17T21:53:59.569Z,100.00
2023-02-17T21:56:26.896Z,100.00
2023-02-17T21:58:55.651Z,100.00
2023-02-17T22:01:26.155Z,100.00
2023-02-17T22:03:54.084Z,100.00
2023-02-17T22:06:28.397Z,100.00
2023-02-17T22:08:57.222Z,100.00
2023-02-17T22:11:33.863Z,100.00
2023-02-17T22:14:05.434Z,100.00
2023-02-17T22:16:35.810Z,100.00
2023-02-17T22:19:05.234Z,100.00
2023-02-17T22:21:32.775Z,100.00
2023-02-17T22:24:01.081Z,100.00
2023-02-17T22:26:29.131Z,100.00
2023-02-17T22:28:57.004Z,100.00
2023-02-17T22:31:28.373Z,100.00
2023-02-17T22:34:02.567Z,100.00
2023-02-17T22:36:34.957Z,99.60
2023-02-17T22:39:04.531Z,97.74
2023-02-17T22:41:33.056Z,96.94
2023-02-17T22:44:01.690Z,96.64
2023-02-17T22:46:29.091Z,95.67
2023-02-17T22:48:57.331Z,95.60
2023-02-17T22:51:44.708Z,95.34
2023-02-17T22:54:11.727Z,95.03
2023-02-17T22:56:39.744Z,95.21
2023-02-17T22:59:07.069Z,95.15
2023-02-17T23:01:36.486Z,94.18
2023-02-17T23:04:05.134Z,94.64
2023-02-17T23:06:36.920Z,93.34
2023-02-17T23:09:07.356Z,93.40
2023-02-17T23:11:57.587Z,91.22
2023-02-17T23:14:37.906Z,90.24
2023-02-17T23:17:09.856Z,89.53
2023-02-17T23:19:38.739Z,88.78
2023-02-17T23:22:15.941Z,87.85
2023-02-17T23:24:47.568Z,88.64
2023-02-17T23:27:14.762Z,88.82
2023-02-17T23:29:42.615Z,88.93
2023-02-17T23:32:09.960Z,88.89
2023-02-17T23:34:38.212Z,88.25
2023-02-17T23:37:05.201Z,88.23
2023-02-17T23:39:32.214Z,87.71
2023-02-17T23:41:59.245Z,87.48
2023-02-17T23:44:26.290Z,87.18
2023-02-17T23:46:53.310Z,87.34
2023-02-17T23:49:20.448Z,86.30
2023-02-17T23:51:47.562Z,84.92
2023-02-17T23:54:15.332Z,84.29
2023-02-17T23:56:42.960Z,83.63
2023-02-17T23:59:10.349Z,82.77
